sensor_id;sensor_type;location;lat;lon;timestamp;pressure;altitude;pressure_sealevel;temperature;humidity
79242;BME280;68670;48.720;9.118;2024-03-23T00:55:28;96127.06;;;9.89;67.76
79242;BME280;68670;48.720;9.118;2024-03-23T00:57:53;96121.66;;;9.94;67.66
79242;BME280;68670;48.720;9.118;2024-03-23T01:00:18;96118.22;;;10.03;66.73
79242;BME280;68670;48.720;9.118;2024-03-23T01:02:44;96118.59;;;10.17;66.29
79242;BME280;68670;48.720;9.118;2024-03-23T01:05:09;96111.31;;;10.23;65.89
79242;BME280;68670;48.720;9.118;2024-03-23T01:07:37;96111.31;;;10.23;65.98
79242;BME280;68670;48.720;9.118;2024-03-23T01:10:02;96116.19;;;10.21;66.17
79242;BME280;68670;48.720;9.118;2024-03-23T01:12:27;96101.91;;;10.19;66.04
79242;BME280;68670;48.720;9.118;2024-03-23T01:14:53;96092.88;;;10.18;66.78
79242;BME280;68670;48.720;9.118;2024-03-23T01:17:18;96097.72;;;10.33;65.76
79242;BME280;68670;48.720;9.118;2024-03-23T01:19:43;96096.13;;;10.42;65.68
79242;BME280;68670;48.720;9.118;2024-03-23T01:22:11;96092.56;;;10.41;65.67
79242;BME280;68670;48.720;9.118;2024-03-23T01:24:36;96094.47;;;10.41;65.81
79242;BME280;68670;48.720;9.118;2024-03-23T01:27:02;96092.03;;;10.39;65.86
79242;BME280;68670;48.720;9.118;2024-03-23T01:29:27;96090.09;;;10.40;66.36
79242;BME280;68670;48.720;9.118;2024-03-23T01:31:52;96088.47;;;10.39;65.93
79242;BME280;68670;48.720;9.118;2024-03-23T01:34:20;96079.44;;;10.43;66.32
79242;BME280;68670;48.720;9.118;2024-03-23T01:36:46;96087.94;;;10.47;65.79
79242;BME280;68670;48.720;9.118;2024-03-23T01:39:13;96076.47;;;10.50;65.28
79242;BME280;68670;48.720;9.118;2024-03-23T01:41:39;96084.09;;;10.43;66.15
79242;BME280;68670;48.720;9.118;2024-03-23T01:44:07;96084.09;;;10.43;66.32
79242;BME280;68670;48.720;9.118;2024-03-23T01:46:34;96079.75;;;10.47;66.27
79242;BME280;68670;48.720;9.118;2024-03-23T01:49:00;96070.44;;;10.48;66.24
79242;BME280;68670;48.720;9.118;2024-03-23T01:51:27;96069.06;;;10.46;66.32
79242;BME280;68670;48.720;9.118;2024-03-23T01:53:52;96061.59;;;10.36;66.76
79242;BME280;68670;48.720;9.118;2024-03-23T01:56:19;96062.13;;;10.33;67.18
79242;BME280;68670;48.720;9.118;2024-03-23T01:58:44;96053.63;;;10.29;67.38
79242;BME280;68670;48.720;9.118;2024-03-23T02:01:11;96061.53;;;10.26;67.44
79242;BME280;68670;48.720;9.118;2024-03-23T02:03:39;96033.84;;;10.22;67.91
79242;BME280;68670;48.720;9.118;2024-03-23T02:06:08;96032.38;;;10.15;68.35
79242;BME280;68670;48.720;9.118;2024-03-23T02:08:34;96036.31;;;10.24;67.95
79242;BME280;68670;48.720;9.118;2024-03-23T02:10:59;96027.47;;;10.17;67.90
79242;BME280;68670;48.720;9.118;2024-03-23T02:13:25;96029.66;;;10.15;68.09
79242;BME280;68670;48.720;9.118;2024-03-23T02:15:50;96027.94;;;10.08;68.74
79242;BME280;68670;48.720;9.118;2024-03-23T02:18:15;96016.47;;;10.11;68.69
79242;BME280;68670;48.720;9.118;2024-03-23T02:20:40;96015.34;;;10.07;69.70
79242;BME280;68670;48.720;9.118;2024-03-23T02:23:13;96018.91;;;10.08;69.44
79242;BME280;68670;48.720;9.118;2024-03-23T02:25:38;96014.63;;;9.85;71.16
79242;BME280;68670;48.720;9.118;2024-03-23T02:28:04;96008.59;;;9.83;71.38
79242;BME280;68670;48.720;9.118;2024-03-23T02:30:29;96003.44;;;9.87;71.26
79242;BME280;68670;48.720;9.118;2024-03-23T02:32:55;96003.00;;;10.00;71.23
79242;BME280;68670;48.720;9.118;2024-03-23T02:35:20;96011.00;;;10.11;70.85
79242;BME280;68670;48.720;9.118;2024-03-23T02:37:46;96007.88;;;10.25;70.76
79242;BME280;68670;48.720;9.118;2024-03-23T02:40:12;96015.56;;;10.28;70.44
79242;BME280;68670;48.720;9.118;2024-03-23T02:42:39;96009.31;;;10.32;70.57
79242;BME280;68670;48.720;9.118;2024-03-23T02:45:07;96001.69;;;10.44;70.08
79242;BME280;68670;48.720;9.118;2024-03-23T02:47:33;96004.13;;;10.41;70.39
79242;BME280;68670;48.720;9.118;2024-03-23T02:50:01;95998.13;;;10.44;70.33
79242;BME280;68670;48.720;9.118;2024-03-23T02:52:26;95992.91;;;10.37;70.18
79242;BME280;68670;48.720;9.118;2024-03-23T02:54:52;95999.22;;;10.43;70.64
79242;BME280;68670;48.720;9.118;2024-03-23T02:57:19;95988.28;;;10.38;70.93
79242;BME280;68670;48.720;9.118;2024-03-23T02:59:45;95989.38;;;10.42;70.84
79242;BME280;68670;48.720;9.118;2024-03-23T03:02:11;95982.19;;;10.31;71.15
79242;BME280;68670;48.720;9.118;2024-03-23T03:04:39;95979.94;;;10.23;71.60
79242;BME280;68670;48.720;9.118;2024-03-23T03:07:07;95977.09;;;10.13;72.14
79242;BME280;68670;48.720;9.118;2024-03-23T03:09:35;95984.59;;;10.22;71.90
79242;BME280;68670;48.720;9.118;2024-03-23T03:12:01;95987.00;;;10.19;71.98
79242;BME280;68670;48.720;9.118;2024-03-23T03:14:30;95982.94;;;10.21;71.67
79242;BME280;68670;48.720;9.118;2024-03-23T03:16:55;95979.25;;;10.10;72.33
79242;BME280;68670;48.720;9.118;2024-03-23T03:19:21;95982.31;;;10.14;72.20
79242;BME280;68670;48.720;9.118;2024-03-23T03:21:46;95975.94;;;10.03;72.63
79242;BME280;68670;48.720;9.118;2024-03-23T03:24:12;95980.00;;;9.96;73.00
79242;BME280;68670;48.720;9.118;2024-03-23T03:26:40;95982.16;;;9.94;73.21
79242;BME280;68670;48.720;9.118;2024-03-23T03:29:05;95969.25;;;9.89;73.54
79242;BME280;68670;48.720;9.118;2024-03-23T03:31:33;95958.31;;;9.89;73.55
79242;BME280;68670;48.720;9.118;2024-03-23T03:33:58;95960.97;;;9.79;74.23
79242;BME280;68670;48.720;9.118;2024-03-23T03:36:28;95957.19;;;9.85;73.98
79242;BME280;68670;48.720;9.118;2024-03-23T03:38:53;95958.75;;;9.76;74.46
79242;BME280;68670;48.720;9.118;2024-03-23T03:41:21;95953.28;;;9.76;74.42
79242;BME280;68670;48.720;9.118;2024-03-23T03:43:49;95944.00;;;9.77;74.50
79242;BME280;68670;48.720;9.118;2024-03-23T03:46:17;95947.53;;;9.72;74.85
79242;BME280;68670;48.720;9.118;2024-03-23T03:48:47;95943.84;;;9.57;76.06
79242;BME280;68670;48.720;9.118;2024-03-23T03:51:13;95942.91;;;9.46;76.63
79242;BME280;68670;48.720;9.118;2024-03-23T03:53:41;95930.56;;;9.38;76.83
79242;BME280;68670;48.720;9.118;2024-03-23T03:56:09;95919.84;;;9.32;76.94
79242;BME280;68670;48.720;9.118;2024-03-23T03:58:34;95917.09;;;9.32;77.29
79242;BME280;68670;48.720;9.118;2024-03-23T04:00:59;95893.97;;;9.39;77.18
79242;BME280;68670;48.720;9.118;2024-03-23T04:03:25;95892.47;;;9.27;78.25
79242;BME280;68670;48.720;9.118;2024-03-23T04:05:53;95892.72;;;9.25;78.13
79242;BME280;68670;48.720;9.118;2024-03-23T04:08:20;95895.41;;;9.20;78.29
79242;BME280;68670;48.720;9.118;2024-03-23T04:10:45;95894.53;;;9.15;79.18
79242;BME280;68670;48.720;9.118;2024-03-23T04:13:11;95877.56;;;9.13;79.41
79242;BME280;68670;48.720;9.118;2024-03-23T04:15:36;95859.31;;;9.18;79.02
79242;BME280;68670;48.720;9.118;2024-03-23T04:18:04;95853.38;;;9.26;78.80
79242;BME280;68670;48.720;9.118;2024-03-23T04:20:33;95857.19;;;9.25;78.63
79242;BME280;68670;48.720;9.118;2024-03-23T04:22:59;95856.69;;;9.28;79.16
79242;BME280;68670;48.720;9.118;2024-03-23T04:25:24;95852.88;;;9.29;79.07
79242;BME280;68670;48.720;9.118;2024-03-23T04:27:49;95863.22;;;9.27;79.19
79242;BME280;68670;48.720;9.118;2024-03-23T04:30:17;95871.03;;;9.46;78.27
79242;BME280;68670;48.720;9.118;2024-03-23T04:32:43;95863.41;;;9.48;78.54
79242;BME280;68670;48.720;9.118;2024-03-23T04:35:11;95850.50;;;9.43;78.38
79242;BME280;68670;48.720;9.118;2024-03-23T04:37:37;95851.34;;;9.43;78.98
79242;BME280;68670;48.720;9.118;2024-03-23T04:40:06;95850.03;;;9.51;78.58
79242;BME280;68670;48.720;9.118;2024-03-23T04:42:33;95883.69;;;9.57;78.75
79242;BME280;68670;48.720;9.118;2024-03-23T04:44:58;95878.22;;;9.57;79.55
79242;BME280;68670;48.720;9.118;2024-03-23T04:47:24;95860.06;;;9.77;79.49
79242;BME280;68670;48.720;9.118;2024-03-23T04:49:49;95873.56;;;9.94;79.18
79242;BME280;68670;48.720;9.118;2024-03-23T04:52:14;95880.16;;;9.98;79.52
79242;BME280;68670;48.720;9.118;2024-03-23T04:54:44;95908.88;;;9.96;79.34
79242;BME280;68670;48.720;9.118;2024-03-23T04:57:10;95926.56;;;9.83;83.63
79242;BME280;68670;48.720;9.118;2024-03-23T04:59:38;95922.06;;;9.67;87.42
79242;BME280;68670;48.720;9.118;2024-03-23T05:02:03;95924.09;;;9.50;91.09
79242;BME280;68670;48.720;9.118;2024-03-23T05:04:29;95938.66;;;9.28;94.82
79242;BME280;68670;48.720;9.118;2024-03-23T05:06:54;95931.44;;;9.17;98.55
79242;BME280;68670;48.720;9.118;2024-03-23T05:09:19;95930.28;;;9.08;100.00
79242;BME280;68670;48.720;9.118;2024-03-23T05:11:49;95922.53;;;9.00;100.00
79242;BME280;68670;48.720;9.118;2024-03-23T05:14:17;95908.25;;;8.93;100.00
79242;BME280;68670;48.720;9.118;2024-03-23T05:16:42;95921.91;;;8.93;100.00
79242;BME280;68670;48.720;9.118;2024-03-23T05:19:07;95920.25;;;8.92;100.00
79242;BME280;68670;48.720;9.118;2024-03-23T05:21:33;95919.88;;;8.83;100.00
79242;BME280;68670;48.720;9.118;2024-03-23T05:23:58;95928.56;;;8.80;100.00
79242;BME280;68670;48.720;9.118;2024-03-23T05:26:26;95929.63;;;8.74;100.00
79242;BME280;68670;48.720;9.118;2024-03-23T05:28:54;95929.81;;;8.67;100.00
79242;BME280;68670;48.720;9.118;2024-03-23T05:31:29;95936.84;;;8.63;100.00
79242;BME280;68670;48.720;9.118;2024-03-23T05:33:55;95940.09;;;8.60;100.00
79242;BME280;68670;48.720;9.118;2024-03-23T05:36:23;95939.56;;;8.63;100.00
79242;BME280;68670;48.720;9.118;2024-03-23T05:38:51;95946.13;;;8.62;100.00
79242;BME280;68670;48.720;9.118;2024-03-23T05:41:16;95963.75;;;8.55;100.00
79242;BME280;68670;48.720;9.118;2024-03-23T05:43:41;95972.75;;;8.55;100.00
79242;BME280;68670;48.720;9.118;2024-03-23T05:46:07;95980.31;;;8.48;100.00
79242;BME280;68670;48.720;9.118;2024-03-23T05:48:35;95999.13;;;8.45;100.00
79242;BME280;68670;48.720;9.118;2024-03-23T05:51:01;96001.00;;;8.44;100.00
79242;BME280;68670;48.720;9.118;2024-03-23T05:53:27;95997.72;;;8.42;100.00
79242;BME280;68670;48.720;9.118;2024-03-23T05:56:00;95994.78;;;8.32;100.00
79242;BME280;68670;48.720;9.118;2024-03-23T05:58:26;95997.53;;;8.32;99.64
79242;BME280;68670;48.720;9.118;2024-03-23T06:01:00;95984.31;;;8.24;98.83
79242;BME280;68670;48.720;9.118;2024-03-23T06:03:29;96012.25;;;8.14;97.44
79242;BME280;68670;48.720;9.118;2024-03-23T06:05:57;96003.19;;;8.08;98.01
79242;BME280;68670;48.720;9.118;2024-03-23T06:08:25;96007.97;;;8.01;94.77
79242;BME280;68670;48.720;9.118;2024-03-23T06:10:52;96004.50;;;7.89;96.43
79242;BME280;68670;48.720;9.118;2024-03-23T06:13:18;96009.63;;;7.86;94.81
79242;BME280;68670;48.720;9.118;2024-03-23T06:15:43;96013.06;;;7.81;93.11
79242;BME280;68670;48.720;9.118;2024-03-23T06:18:10;96029.97;;;7.78;91.91
79242;BME280;68670;48.720;9.118;2024-03-23T06:20:36;96020.53;;;7.69;94.08
79242;BME280;68670;48.720;9.118;2024-03-23T06:23:02;96014.41;;;7.62;91.73
79242;BME280;68670;48.720;9.118;2024-03-23T06:25:30;96026.75;;;7.53;94.09
79242;BME280;68670;48.720;9.118;2024-03-23T06:27:58;96039.16;;;7.44;94.02
79242;BME280;68670;48.720;9.118;2024-03-23T06:30:29;96049.38;;;7.36;95.38
79242;BME280;68670;48.720;9.118;2024-03-23T06:32:54;96053.63;;;7.32;95.36
79242;BME280;68670;48.720;9.118;2024-03-23T06:35:20;96064.28;;;7.34;94.90
79242;BME280;68670;48.720;9.118;2024-03-23T06:37:45;96078.50;;;7.36;95.67
79242;BME280;68670;48.720;9.118;2024-03-23T06:40:10;96087.50;;;7.36;95.29
79242;BME280;68670;48.720;9.118;2024-03-23T06:42:36;96080.16;;;7.37;94.16
79242;BME280;68670;48.720;9.118;2024-03-23T06:45:02;96080.97;;;7.37;93.61
79242;BME280;68670;48.720;9.118;2024-03-23T06:47:32;96089.97;;;7.38;93.43
79242;BME280;68670;48.720;9.118;2024-03-23T06:49:59;96094.94;;;7.41;93.37
79242;BME280;68670;48.720;9.118;2024-03-23T06:52:29;96111.06;;;7.43;93.16
79242;BME280;68670;48.720;9.118;2024-03-23T06:54:57;96115.09;;;7.40;92.72
79242;BME280;68670;48.720;9.118;2024-03-23T06:57:25;96120.88;;;7.44;91.97
79242;BME280;68670;48.720;9.118;2024-03-23T06:59:50;96130.47;;;7.46;91.30
79242;BME280;68670;48.720;9.118;2024-03-23T07:02:18;96131.28;;;7.47;91.21
79242;BME280;68670;48.720;9.118;2024-03-23T07:04:43;96136.22;;;7.50;91.10
79242;BME280;68670;48.720;9.118;2024-03-23T07:07:11;96147.06;;;7.45;91.19
79242;BME280;68670;48.720;9.118;2024-03-23T07:09:37;96148.78;;;7.51;91.79
79242;BME280;68670;48.720;9.118;2024-03-23T07:12:03;96139.53;;;7.52;91.37
79242;BME280;68670;48.720;9.118;2024-03-23T07:14:30;96149.63;;;7.51;91.23
79242;BME280;68670;48.720;9.118;2024-03-23T07:16:58;96147.25;;;7.55;91.25
79242;BME280;68670;48.720;9.118;2024-03-23T07:19:25;96162.16;;;7.52;90.64
79242;BME280;68670;48.720;9.118;2024-03-23T07:21:55;96161.81;;;7.49;90.79
79242;BME280;68670;48.720;9.118;2024-03-23T07:24:21;96159.78;;;7.56;90.55
79242;BME280;68670;48.720;9.118;2024-03-23T07:26:46;96154.00;;;7.52;91.03
79242;BME280;68670;48.720;9.118;2024-03-23T07:29:12;96156.72;;;7.52;91.20
79242;BME280;68670;48.720;9.118;2024-03-23T07:31:37;96168.03;;;7.72;91.41
79242;BME280;68670;48.720;9.118;2024-03-23T07:34:06;96162.44;;;7.79;89.54
79242;BME280;68670;48.720;9.118;2024-03-23T07:36:34;96175.19;;;7.62;89.34
79242;BME280;68670;48.720;9.118;2024-03-23T07:38:59;96186.09;;;7.62;90.02
79242;BME280;68670;48.720;9.118;2024-03-23T07:41:27;96177.81;;;7.57;89.25
79242;BME280;68670;48.720;9.118;2024-03-23T07:43:53;96189.06;;;7.49;89.02
79242;BME280;68670;48.720;9.118;2024-03-23T07:46:21;96178.16;;;7.49;89.10
79242;BME280;68670;48.720;9.118;2024-03-23T07:48:46;96185.44;;;7.43;88.17
79242;BME280;68670;48.720;9.118;2024-03-23T07:51:21;96186.25;;;7.44;88.75
79242;BME280;68670;48.720;9.118;2024-03-23T07:53:47;96195.50;;;7.43;88.87
79242;BME280;68670;48.720;9.118;2024-03-23T07:56:16;96185.78;;;7.47;89.64
79242;BME280;68670;48.720;9.118;2024-03-23T07:58:43;96186.34;;;7.49;89.01
79242;BME280;68670;48.720;9.118;2024-03-23T08:01:10;96204.78;;;7.98;88.69
79242;BME280;68670;48.720;9.118;2024-03-23T08:03:37;96224.25;;;8.47;85.78
79242;BME280;68670;48.720;9.118;2024-03-23T08:08:34;96262.38;;;7.73;90.49
79242;BME280;68670;48.720;9.118;2024-03-23T08:10:59;96267.41;;;7.41;92.85
79242;BME280;68670;48.720;9.118;2024-03-23T08:13:25;96260.66;;;7.32;95.64
79242;BME280;68670;48.720;9.118;2024-03-23T08:15:50;96258.88;;;7.26;97.41
79242;BME280;68670;48.720;9.118;2024-03-23T08:18:15;96255.44;;;7.19;96.67
79242;BME280;68670;48.720;9.118;2024-03-23T08:20:41;96276.53;;;7.12;95.30
79242;BME280;68670;48.720;9.118;2024-03-23T08:23:07;96296.19;;;7.14;94.31
79242;BME280;68670;48.720;9.118;2024-03-23T08:25:33;96302.47;;;7.15;94.67
79242;BME280;68670;48.720;9.118;2024-03-23T08:28:01;96317.47;;;7.17;93.26
79242;BME280;68670;48.720;9.118;2024-03-23T08:30:28;96325.19;;;7.20;91.10
79242;BME280;68670;48.720;9.118;2024-03-23T08:32:54;96342.13;;;7.22;89.07
79242;BME280;68670;48.720;9.118;2024-03-23T08:35:24;96335.25;;;7.55;84.50
79242;BME280;68670;48.720;9.118;2024-03-23T08:37:49;96346.88;;;7.38;84.20
79242;BME280;68670;48.720;9.118;2024-03-23T08:40:15;96337.75;;;7.33;85.80
79242;BME280;68670;48.720;9.118;2024-03-23T08:42:40;96335.72;;;7.28;84.64
79242;BME280;68670;48.720;9.118;2024-03-23T08:45:06;96333.13;;;7.33;83.75
79242;BME280;68670;48.720;9.118;2024-03-23T08:47:36;96331.47;;;7.32;83.75
79242;BME280;68670;48.720;9.118;2024-03-23T08:50:01;96325.78;;;7.69;80.60
79242;BME280;68670;48.720;9.118;2024-03-23T08:52:27;96334.19;;;7.67;80.58
79242;BME280;68670;48.720;9.118;2024-03-23T08:54:54;96360.16;;;7.70;81.13
79242;BME280;68670;48.720;9.118;2024-03-23T08:57:21;96353.88;;;7.69;78.18
79242;BME280;68670;48.720;9.118;2024-03-23T08:59:46;96366.91;;;7.79;79.37
79242;BME280;68670;48.720;9.118;2024-03-23T09:02:11;96385.16;;;7.67;77.23
79242;BME280;68670;48.720;9.118;2024-03-23T09:04:37;96393.19;;;7.62;76.81
79242;BME280;68670;48.720;9.118;2024-03-23T09:07:02;96398.41;;;7.52;76.20
79242;BME280;68670;48.720;9.118;2024-03-23T09:09:27;96398.31;;;7.47;77.45
79242;BME280;68670;48.720;9.118;2024-03-23T09:11:55;96400.44;;;7.45;76.35
79242;BME280;68670;48.720;9.118;2024-03-23T09:14:23;96419.00;;;7.36;74.91
79242;BME280;68670;48.720;9.118;2024-03-23T09:16:51;96432.88;;;7.34;74.56
79242;BME280;68670;48.720;9.118;2024-03-23T09:19:20;96430.94;;;7.23;74.56
79242;BME280;68670;48.720;9.118;2024-03-23T09:21:45;96435.00;;;7.32;75.23
79242;BME280;68670;48.720;9.118;2024-03-23T09:24:13;96436.56;;;7.40;75.08
79242;BME280;68670;48.720;9.118;2024-03-23T09:26:38;96445.19;;;7.49;72.98
79242;BME280;68670;48.720;9.118;2024-03-23T09:29:03;96434.28;;;7.49;70.59
79242;BME280;68670;48.720;9.118;2024-03-23T09:31:29;96435.97;;;7.85;69.82
79242;BME280;68670;48.720;9.118;2024-03-23T09:33:54;96438.94;;;7.95;68.21
79242;BME280;68670;48.720;9.118;2024-03-23T09:36:20;96430.19;;;8.04;67.05
79242;BME280;68670;48.720;9.118;2024-03-23T09:38:45;96431.00;;;8.40;69.10
79242;BME280;68670;48.720;9.118;2024-03-23T09:41:11;96429.13;;;8.05;65.12
79242;BME280;68670;48.720;9.118;2024-03-23T09:43:37;96422.69;;;7.88;63.77
79242;BME280;68670;48.720;9.118;2024-03-23T09:46:02;96423.31;;;7.79;64.73
79242;BME280;68670;48.720;9.118;2024-03-23T09:48:28;96428.78;;;7.79;64.64
79242;BME280;68670;48.720;9.118;2024-03-23T09:50:53;96432.06;;;7.81;65.61
79242;BME280;68670;48.720;9.118;2024-03-23T09:53:19;96444.31;;;7.78;65.44
79242;BME280;68670;48.720;9.118;2024-03-23T09:55:47;96429.47;;;7.62;66.32
79242;BME280;68670;48.720;9.118;2024-03-23T09:58:15;96442.13;;;7.57;65.30
79242;BME280;68670;48.720;9.118;2024-03-23T10:00:41;96436.47;;;7.70;67.08
79242;BME280;68670;48.720;9.118;2024-03-23T10:03:06;96438.56;;;8.15;65.22
79242;BME280;68670;48.720;9.118;2024-03-23T10:05:38;96432.75;;;9.48;60.84
79242;BME280;68670;48.720;9.118;2024-03-23T10:10:38;96426.34;;;8.81;60.91
79242;BME280;68670;48.720;9.118;2024-03-23T10:13:03;96411.78;;;10.42;57.39
79242;BME280;68670;48.720;9.118;2024-03-23T10:15:29;96402.75;;;10.64;53.87
79242;BME280;68670;48.720;9.118;2024-03-23T10:17:56;96407.13;;;10.04;53.66
79242;BME280;68670;48.720;9.118;2024-03-23T10:20:23;96407.69;;;9.68;54.75
79242;BME280;68670;48.720;9.118;2024-03-23T10:22:52;96412.72;;;9.59;55.14
79242;BME280;68670;48.720;9.118;2024-03-23T10:25:17;96404.53;;;10.15;52.67
79242;BME280;68670;48.720;9.118;2024-03-23T10:27:43;96411.66;;;10.16;52.22
79242;BME280;68670;48.720;9.118;2024-03-23T10:30:12;96404.75;;;9.91;51.28
79242;BME280;68670;48.720;9.118;2024-03-23T10:32:40;96402.94;;;10.57;50.64
79242;BME280;68670;48.720;9.118;2024-03-23T10:35:19;96404.56;;;9.98;53.84
79242;BME280;68670;48.720;9.118;2024-03-23T10:37:47;96405.25;;;9.21;53.79
79242;BME280;68670;48.720;9.118;2024-03-23T10:40:15;96393.63;;;8.97;55.25
79242;BME280;68670;48.720;9.118;2024-03-23T10:42:40;96400.16;;;8.96;56.98
79242;BME280;68670;48.720;9.118;2024-03-23T10:45:08;96416.19;;;8.64;56.63
79242;BME280;68670;48.720;9.118;2024-03-23T10:47:35;96413.78;;;8.39;58.26
79242;BME280;68670;48.720;9.118;2024-03-23T10:50:02;96414.97;;;8.20;59.69
79242;BME280;68670;48.720;9.118;2024-03-23T10:52:28;96428.75;;;7.67;67.25
79242;BME280;68670;48.720;9.118;2024-03-23T10:54:56;96451.69;;;7.36;71.27
79242;BME280;68670;48.720;9.118;2024-03-23T10:57:27;96468.53;;;6.73;75.10
79242;BME280;68670;48.720;9.118;2024-03-23T10:59:57;96500.66;;;6.10;81.04
79242;BME280;68670;48.720;9.118;2024-03-23T11:02:25;96536.34;;;5.38;88.60
79242;BME280;68670;48.720;9.118;2024-03-23T11:04:52;96525.34;;;4.89;92.13
79242;BME280;68670;48.720;9.118;2024-03-23T11:09:51;96472.09;;;4.56;94.83
79242;BME280;68670;48.720;9.118;2024-03-23T11:12:24;96469.94;;;4.71;94.40
79242;BME280;68670;48.720;9.118;2024-03-23T11:15:00;96461.75;;;5.16;92.96
79242;BME280;68670;48.720;9.118;2024-03-23T11:17:27;96463.66;;;5.59;93.54
79242;BME280;68670;48.720;9.118;2024-03-23T11:22:46;96461.44;;;5.99;89.32
79242;BME280;68670;48.720;9.118;2024-03-23T11:27:46;96470.88;;;6.51;84.99
79242;BME280;68670;48.720;9.118;2024-03-23T11:32:37;96477.03;;;6.28;84.14
79242;BME280;68670;48.720;9.118;2024-03-23T11:35:05;96476.84;;;6.60;83.80
79242;BME280;68670;48.720;9.118;2024-03-23T11:37:31;96476.00;;;6.78;81.69
79242;BME280;68670;48.720;9.118;2024-03-23T11:39:58;96460.09;;;6.45;82.21
79242;BME280;68670;48.720;9.118;2024-03-23T11:42:23;96463.63;;;6.63;82.13
79242;BME280;68670;48.720;9.118;2024-03-23T11:44:54;96466.41;;;6.75;84.11
79242;BME280;68670;48.720;9.118;2024-03-23T11:47:19;96463.38;;;7.13;81.16
79242;BME280;68670;48.720;9.118;2024-03-23T11:49:45;96456.97;;;7.07;80.08
79242;BME280;68670;48.720;9.118;2024-03-23T11:52:15;96454.16;;;7.14;81.89
79242;BME280;68670;48.720;9.118;2024-03-23T11:54:41;96450.00;;;7.23;78.76
79242;BME280;68670;48.720;9.118;2024-03-23T11:57:08;96445.63;;;7.22;76.94
79242;BME280;68670;48.720;9.118;2024-03-23T11:59:40;96451.28;;;7.09;71.50
79242;BME280;68670;48.720;9.118;2024-03-23T12:02:12;96457.34;;;7.23;70.11
79242;BME280;68670;48.720;9.118;2024-03-23T12:04:40;96447.19;;;7.30;71.69
79242;BME280;68670;48.720;9.118;2024-03-23T12:07:16;96444.69;;;7.28;69.24
79242;BME280;68670;48.720;9.118;2024-03-23T12:10:04;96440.47;;;7.56;69.92
79242;BME280;68670;48.720;9.118;2024-03-23T12:12:31;96442.63;;;7.77;69.73
79242;BME280;68670;48.720;9.118;2024-03-23T12:15:07;96446.66;;;7.86;68.14
79242;BME280;68670;48.720;9.118;2024-03-23T12:17:33;96439.41;;;7.80;68.20
79242;BME280;68670;48.720;9.118;2024-03-23T12:20:00;96447.56;;;7.57;64.47
79242;BME280;68670;48.720;9.118;2024-03-23T12:22:26;96443.53;;;7.48;67.00
79242;BME280;68670;48.720;9.118;2024-03-23T12:24:52;96452.25;;;7.26;63.66
79242;BME280;68670;48.720;9.118;2024-03-23T12:27:18;96434.72;;;7.22;65.48
79242;BME280;68670;48.720;9.118;2024-03-23T12:29:45;96434.06;;;7.38;64.15
79242;BME280;68670;48.720;9.118;2024-03-23T12:32:13;96438.28;;;7.23;63.66
79242;BME280;68670;48.720;9.118;2024-03-23T12:34:39;96447.09;;;7.36;64.71
79242;BME280;68670;48.720;9.118;2024-03-23T12:37:05;96438.59;;;7.45;64.16
79242;BME280;68670;48.720;9.118;2024-03-23T12:39:34;96443.28;;;7.49;64.96
79242;BME280;68670;48.720;9.118;2024-03-23T12:42:02;96437.13;;;7.30;62.70
79242;BME280;68670;48.720;9.118;2024-03-23T12:44:30;96438.78;;;7.31;63.75
79242;BME280;68670;48.720;9.118;2024-03-23T12:46:56;96432.88;;;7.34;63.68
79242;BME280;68670;48.720;9.118;2024-03-23T12:49:22;96453.25;;;7.44;63.42
79242;BME280;68670;48.720;9.118;2024-03-23T12:51:54;96446.22;;;7.24;62.82
79242;BME280;68670;48.720;9.118;2024-03-23T12:54:23;96436.66;;;7.33;64.67
79242;BME280;68670;48.720;9.118;2024-03-23T12:56:51;96447.66;;;7.27;64.70
79242;BME280;68670;48.720;9.118;2024-03-23T12:59:16;96433.00;;;7.39;65.03
79242;BME280;68670;48.720;9.118;2024-03-23T13:01:45;96426.94;;;7.37;64.54
79242;BME280;68670;48.720;9.118;2024-03-23T13:04:10;96427.19;;;7.48;65.24
79242;BME280;68670;48.720;9.118;2024-03-23T13:06:36;96436.44;;;7.47;65.98
79242;BME280;68670;48.720;9.118;2024-03-23T13:09:02;96431.22;;;7.33;66.21
79242;BME280;68670;48.720;9.118;2024-03-23T13:11:28;96427.78;;;7.38;66.22
79242;BME280;68670;48.720;9.118;2024-03-23T13:13:53;96422.97;;;7.75;66.31
79242;BME280;68670;48.720;9.118;2024-03-23T13:16:18;96400.94;;;9.08;61.17
79242;BME280;68670;48.720;9.118;2024-03-23T13:18:44;96415.03;;;9.51;58.58
79242;BME280;68670;48.720;9.118;2024-03-23T13:21:09;96418.16;;;9.09;56.39
79242;BME280;68670;48.720;9.118;2024-03-23T13:23:34;96410.53;;;8.54;54.17
79242;BME280;68670;48.720;9.118;2024-03-23T13:26:01;96432.63;;;8.18;54.78
79242;BME280;68670;48.720;9.118;2024-03-23T13:28:28;96416.44;;;7.64;54.93
79242;BME280;68670;48.720;9.118;2024-03-23T13:30:55;96407.84;;;7.26;54.19
79242;BME280;68670;48.720;9.118;2024-03-23T13:33:24;96401.53;;;7.02;52.90
79242;BME280;68670;48.720;9.118;2024-03-23T13:38:17;96384.00;;;9.40;46.45
79242;BME280;68670;48.720;9.118;2024-03-23T13:43:18;96374.34;;;10.70;44.05
79242;BME280;68670;48.720;9.118;2024-03-23T13:45:44;96375.47;;;11.28;43.58
79242;BME280;68670;48.720;9.118;2024-03-23T13:48:15;96373.50;;;11.23;44.80
79242;BME280;68670;48.720;9.118;2024-03-23T13:50:40;96368.72;;;11.40;45.63
79242;BME280;68670;48.720;9.118;2024-03-23T13:53:08;96379.84;;;10.97;47.48
79242;BME280;68670;48.720;9.118;2024-03-23T13:55:34;96384.50;;;10.74;47.98
79242;BME280;68670;48.720;9.118;2024-03-23T13:58:04;96374.97;;;11.04;48.09
79242;BME280;68670;48.720;9.118;2024-03-23T14:00:29;96392.44;;;9.38;52.07
79242;BME280;68670;48.720;9.118;2024-03-23T14:02:57;96380.59;;;8.59;54.82
79242;BME280;68670;48.720;9.118;2024-03-23T14:05:22;96415.09;;;8.14;56.10
79242;BME280;68670;48.720;9.118;2024-03-23T14:07:48;96406.47;;;8.05;57.57
79242;BME280;68670;48.720;9.118;2024-03-23T14:10:14;96397.13;;;7.66;60.90
79242;BME280;68670;48.720;9.118;2024-03-23T14:12:39;96419.75;;;7.43;64.40
79242;BME280;68670;48.720;9.118;2024-03-23T14:15:07;96434.00;;;6.55;75.13
79242;BME280;68670;48.720;9.118;2024-03-23T14:17:33;96420.50;;;6.30;76.58
79242;BME280;68670;48.720;9.118;2024-03-23T14:19:58;96411.13;;;7.16;75.01